createdAt,value
2022-11-24T00:01:10.603Z,1.52
2022-11-24T00:03:36.943Z,1.80
2022-11-24T00:06:04.514Z,1.77
2022-11-24T00:08:30.806Z,2.17
2022-11-24T00:11:02.090Z,2.47
2022-11-24T00:13:28.352Z,1.75
2022-11-24T00:15:54.616Z,1.60
2022-11-24T00:18:20.907Z,1.55
2022-11-24T00:20:53.485Z,2.35
2022-11-24T00:23:19.751Z,1.75
2022-11-24T00:25:46.003Z,2.00
2022-11-24T00:28:12.367Z,2.03
2022-11-24T00:30:38.682Z,1.92
2022-11-24T00:33:05.122Z,1.80
2022-11-24T00:35:31.376Z,2.17
2022-11-24T00:37:57.638Z,2.00
2022-11-24T00:40:23.906Z,2.25
2022-11-24T00:42:50.198Z,1.65
2022-11-24T00:45:16.525Z,1.83
2022-11-24T00:47:42.840Z,1.80
2022-11-24T00:50:09.434Z,1.85
2022-11-24T00:52:35.698Z,1.60
2022-11-24T00:55:01.967Z,1.70
2022-11-24T00:57:28.244Z,1.52
2022-11-24T00:59:54.526Z,1.92
2022-11-24T01:02:20.847Z,1.75
2022-11-24T01:04:47.141Z,2.00
2022-11-24T01:07:13.439Z,2.47
2022-11-24T01:09:43.044Z,2.15
2022-11-24T01:12:09.355Z,2.30
2022-11-24T01:14:35.918Z,2.20
2022-11-24T01:17:02.549Z,1.70
2022-11-24T01:19:28.883Z,1.30
2022-11-24T01:21:55.194Z,1.95
2022-11-24T01:24:21.457Z,2.83
2022-11-24T01:26:47.718Z,1.80
2022-11-24T01:29:14.024Z,1.98
2022-11-24T01:31:40.379Z,1.80
2022-11-24T01:34:06.758Z,2.50
2022-11-24T01:36:33.405Z,2.20
2022-11-24T01:38:59.668Z,1.50
2022-11-24T01:41:26.414Z,1.83
2022-11-24T01:43:53.698Z,2.00
2022-11-24T01:46:24.278Z,1.77
2022-11-24T01:49:08.733Z,1.60
2022-11-24T01:51:36.675Z,2.25
2022-11-24T01:54:10.799Z,1.50
2022-11-24T01:56:38.838Z,1.90
2022-11-24T01:59:06.445Z,1.63
2022-11-24T02:01:33.111Z,1.55
2022-11-24T02:04:01.753Z,1.83
2022-11-24T02:06:30.232Z,1.77
2022-11-24T02:09:15.126Z,1.35
2022-11-24T02:11:41.710Z,2.03
2022-11-24T02:14:10.267Z,1.88
2022-11-24T02:16:36.800Z,1.70
2022-11-24T02:19:11.840Z,1.77
2022-11-24T02:21:38.139Z,1.70
2022-11-24T02:24:04.598Z,1.90
2022-11-24T02:26:33.941Z,1.80
2022-11-24T02:29:00.310Z,1.77
2022-11-24T02:31:26.662Z,1.58
2022-11-24T02:33:53.366Z,2.05
2022-11-24T02:36:19.745Z,2.10
2022-11-24T02:38:46.074Z,2.30
2022-11-24T02:41:15.057Z,1.75
2022-11-24T02:43:43.225Z,2.20
2022-11-24T02:46:10.752Z,2.42
2022-11-24T02:48:37.575Z,1.83
2022-11-24T02:51:04.204Z,1.83
2022-11-24T02:53:30.556Z,2.08
2022-11-24T02:55:56.870Z,2.50
2022-11-24T02:58:23.264Z,2.00
2022-11-24T03:00:49.802Z,1.90
2022-11-24T03:03:16.256Z,2.08
2022-11-24T03:05:42.648Z,1.73
2022-11-24T03:08:08.963Z,2.50
2022-11-24T03:10:35.252Z,3.03
2022-11-24T03:13:01.568Z,1.80
2022-11-24T03:15:27.985Z,1.90
2022-11-24T03:17:55.679Z,2.65
2022-11-24T03:20:22.111Z,2.83
2022-11-24T03:22:48.447Z,2.15
2022-11-24T03:25:14.790Z,1.85
2022-11-24T03:27:41.120Z,2.72
2022-11-24T03:30:07.793Z,1.80
2022-11-24T03:32:34.133Z,1.98
2022-11-24T03:35:00.476Z,2.30
2022-11-24T03:37:26.807Z,2.40
2022-11-24T03:39:53.115Z,2.38
2022-11-24T03:42:19.395Z,2.10
2022-11-24T03:44:45.700Z,1.90
2022-11-24T03:47:12.484Z,2.20
2022-11-24T03:49:38.983Z,3.03
2022-11-24T03:52:08.242Z,1.88
2022-11-24T03:54:34.999Z,2.17
2022-11-24T03:57:01.524Z,2.05
2022-11-24T03:59:27.797Z,3.10
2022-11-24T04:01:54.266Z,2.17
2022-11-24T04:04:20.553Z,2.40
2022-11-24T04:06:46.834Z,2.88
2022-11-24T04:09:13.118Z,2.67
2022-11-24T04:11:58.018Z,2.17
2022-11-24T04:14:24.389Z,2.40
2022-11-24T04:16:50.692Z,2.30
2022-11-24T04:19:17.014Z,2.70
2022-11-24T04:21:43.282Z,1.92
2022-11-24T04:24:09.556Z,2.33
2022-11-24T04:26:35.843Z,2.60
2022-11-24T04:29:02.075Z,2.78
2022-11-24T04:31:28.380Z,2.25
2022-11-24T04:33:54.661Z,2.10
2022-11-24T04:36:20.930Z,2.22
2022-11-24T04:39:19.725Z,3.33
2022-11-24T04:41:33.440Z,2.20
2022-11-24T04:43:59.670Z,2.83
2022-11-24T04:46:25.927Z,2.03
2022-11-24T04:48:52.206Z,1.92
2022-11-24T04:51:18.538Z,2.55
2022-11-24T04:53:44.884Z,2.17
2022-11-24T04:56:11.133Z,2.08
2022-11-24T04:58:37.419Z,1.95
2022-11-24T05:01:06.422Z,1.90
2022-11-24T05:03:32.672Z,2.65
2022-11-24T05:05:59.572Z,2.63
2022-11-24T05:08:25.796Z,2.13
2022-11-24T05:10:52.068Z,2.08
2022-11-24T05:13:18.295Z,1.98
2022-11-24T05:15:44.614Z,1.88
2022-11-24T05:18:11.887Z,2.20
2022-11-24T05:20:38.171Z,1.92
2022-11-24T05:23:05.462Z,2.80
2022-11-24T05:25:32.094Z,2.80
2022-11-24T05:28:02.117Z,2.22
2022-11-24T05:30:28.674Z,2.35
2022-11-24T05:32:55.026Z,2.33
2022-11-24T05:35:21.617Z,2.00
2022-11-24T05:37:48.011Z,1.98
2022-11-24T05:40:14.546Z,1.70
2022-11-24T05:42:46.103Z,2.53
2022-11-24T05:45:15.166Z,1.67
2022-11-24T05:47:41.953Z,1.63
2022-11-24T05:50:09.388Z,1.63
2022-11-24T05:52:36.117Z,2.25
2022-11-24T05:55:02.348Z,1.92
2022-11-24T05:57:28.633Z,1.77
2022-11-24T05:59:55.124Z,1.38
2022-11-24T06:02:21.620Z,1.90
2022-11-24T06:04:47.978Z,1.80
2022-11-24T06:07:14.325Z,1.55
2022-11-24T06:09:41.350Z,1.50
2022-11-24T06:12:08.033Z,2.03
2022-11-24T06:14:34.633Z,1.45
2022-11-24T06:17:01.136Z,1.75
2022-11-24T06:19:27.703Z,1.35
2022-11-24T06:21:53.998Z,1.30
2022-11-24T06:24:20.242Z,1.63
2022-11-24T06:26:46.638Z,1.50
2022-11-24T06:29:13.150Z,1.50
2022-11-24T06:31:39.634Z,1.25
2022-11-24T06:34:07.338Z,1.20
2022-11-24T06:36:33.696Z,1.10
2022-11-24T06:39:01.073Z,1.30
2022-11-24T06:41:27.449Z,1.48
2022-11-24T06:43:53.830Z,1.10
2022-11-24T06:46:20.774Z,1.30
2022-11-24T06:48:47.150Z,1.30
2022-11-24T06:51:13.745Z,1.17
2022-11-24T06:53:40.799Z,1.17
2022-11-24T06:56:16.412Z,1.30
2022-11-24T06:58:44.521Z,1.63
2022-11-24T07:01:14.490Z,1.42
2022-11-24T07:03:41.067Z,1.02
2022-11-24T07:06:07.432Z,0.90
2022-11-24T07:08:33.701Z,0.90
2022-11-24T07:11:06.794Z,1.40
2022-11-24T07:13:33.519Z,1.30
2022-11-24T07:16:09.473Z,1.10
2022-11-24T07:18:35.775Z,1.00
2022-11-24T07:21:03.973Z,1.00
2022-11-24T07:23:30.258Z,1.00
2022-11-24T07:25:56.691Z,1.13
2022-11-24T07:28:23.016Z,1.10
2022-11-24T07:30:49.547Z,1.20
2022-11-24T07:33:19.056Z,0.90
2022-11-24T07:35:45.480Z,1.17
2022-11-24T07:38:12.283Z,1.20
2022-11-24T07:40:38.552Z,1.40
2022-11-24T07:43:04.846Z,1.08
2022-11-24T07:45:31.130Z,1.50
2022-11-24T07:47:57.560Z,1.17
2022-11-24T07:50:23.993Z,1.00
2022-11-24T07:52:50.574Z,1.23
2022-11-24T07:55:17.175Z,1.42
2022-11-24T07:57:43.490Z,1.20
2022-11-24T08:00:10.427Z,1.45
2022-11-24T08:02:36.755Z,1.42
2022-11-24T08:05:03.188Z,1.30
2022-11-24T08:07:29.543Z,1.25
2022-11-24T08:09:55.893Z,1.33
2022-11-24T08:12:22.234Z,1.65
2022-11-24T08:14:49.656Z,1.90
2022-11-24T08:17:16.870Z,1.50
2022-11-24T08:19:43.243Z,1.40
2022-11-24T08:22:09.860Z,1.50
2022-11-24T08:24:36.429Z,1.67
2022-11-24T08:27:03.030Z,1.60
2022-11-24T08:29:29.891Z,1.80
2022-11-24T08:31:57.287Z,1.55
2022-11-24T08:34:24.514Z,1.67
2022-11-24T08:36:51.390Z,1.73
2022-11-24T08:39:18.891Z,1.70
2022-11-24T08:41:45.162Z,1.50
2022-11-24T08:44:14.955Z,1.42
2022-11-24T08:46:41.647Z,1.58
2022-11-24T08:49:08.263Z,1.63
2022-11-24T08:51:34.484Z,1.67
2022-11-24T08:54:01.253Z,1.83
2022-11-24T08:56:29.106Z,2.13
2022-11-24T08:58:56.067Z,1.40
2022-11-24T09:01:22.642Z,1.48
2022-11-24T09:03:50.991Z,2.00
2022-11-24T09:06:18.689Z,2.00
2022-11-24T09:08:44.982Z,1.63
2022-11-24T09:11:12.275Z,2.65
2022-11-24T09:13:39.636Z,1.58
2022-11-24T09:16:13.146Z,1.67
2022-11-24T09:18:39.754Z,1.80
2022-11-24T09:21:10.380Z,2.88
2022-11-24T09:23:36.934Z,2.08
2022-11-24T09:26:04.331Z,1.77
2022-11-24T09:28:30.607Z,1.88
2022-11-24T09:31:00.788Z,1.48
2022-11-24T09:33:27.057Z,2.00
2022-11-24T09:35:53.408Z,1.50
2022-11-24T09:38:20.131Z,1.42
2022-11-24T09:40:46.568Z,1.38
2022-11-24T09:43:16.522Z,1.45
2022-11-24T09:48:33.534Z,1.58
2022-11-24T09:51:02.218Z,1.70
2022-11-24T09:53:37.940Z,1.17
2022-11-24T09:56:24.936Z,1.52
2022-11-24T10:01:22.736Z,1.33
2022-11-24T10:03:50.360Z,1.50
2022-11-24T10:06:20.624Z,1.50
2022-11-24T10:08:56.014Z,2.05
2022-11-24T10:11:42.487Z,1.25
2022-11-24T10:14:20.588Z,1.17
2022-11-24T10:16:51.349Z,1.50
2022-11-24T10:19:17.738Z,1.77
2022-11-24T10:21:50.364Z,1.45
2022-11-24T10:24:29.733Z,1.92
2022-11-24T10:27:14.820Z,1.40
2022-11-24T10:29:41.754Z,1.83
2022-11-24T10:32:15.109Z,1.38
2022-11-24T10:34:43.531Z,1.30
2022-11-24T10:37:32.779Z,1.73
2022-11-24T10:40:03.937Z,1.73
2022-11-24T10:42:31.614Z,1.80
2022-11-24T10:45:01.245Z,1.50
2022-11-24T10:47:27.954Z,1.70
2022-11-24T10:50:03.877Z,1.75
2022-11-24T10:52:32.269Z,1.30
2022-11-24T10:54:59.826Z,1.35
2022-11-24T10:57:27.088Z,2.20
2022-11-24T10:59:53.424Z,1.35
2022-11-24T11:02:27.296Z,1.80
2022-11-24T11:04:53.658Z,2.05
2022-11-24T11:07:21.264Z,2.20
2022-11-24T11:09:48.157Z,1.20
2022-11-24T11:12:43.497Z,1.92
2022-11-24T11:15:21.830Z,1.40
2022-11-24T11:17:54.507Z,1.60
2022-11-24T11:20:38.715Z,1.75
2022-11-24T11:23:14.462Z,1.45
2022-11-24T11:25:41.330Z,1.80
2022-11-24T11:28:18.308Z,1.65
2022-11-24T11:31:17.838Z,2.20
2022-11-24T11:34:14.410Z,2.08
2022-11-24T11:36:41.984Z,2.00
2022-11-24T11:39:18.816Z,1.95
2022-11-24T11:41:47.361Z,1.55
2022-11-24T11:44:32.434Z,1.67
2022-11-24T11:47:02.802Z,2.15
2022-11-24T11:49:31.315Z,1.58
2022-11-24T11:52:16.283Z,2.15
2022-11-24T11:54:45.562Z,1.33
2022-11-24T11:57:18.286Z,1.83
2022-11-24T12:00:03.562Z,1.60
2022-11-24T12:02:39.093Z,1.73
2022-11-24T12:05:11.641Z,2.30
2022-11-24T12:07:45.497Z,2.00
2022-11-24T12:10:11.843Z,1.63
2022-11-24T12:12:50.654Z,2.25
2022-11-24T12:15:35.541Z,1.95
2022-11-24T12:18:48.565Z,3.53
2022-11-24T12:21:06.916Z,2.85
2022-11-24T12:23:45.069Z,2.40
2022-11-24T12:26:19.104Z,2.60
2022-11-24T12:29:04.057Z,2.47
2022-11-24T12:31:33.461Z,2.78
2022-11-24T12:34:18.418Z,3.10
2022-11-24T12:36:47.750Z,2.40
2022-11-24T12:39:17.087Z,2.90
2022-11-24T12:41:56.208Z,3.05
2022-11-24T12:44:35.975Z,2.88
2022-11-24T12:47:07.497Z,3.53
2022-11-24T12:49:38.455Z,2.72
2022-11-24T12:52:08.270Z,2.95
2022-11-24T12:54:39.483Z,2.42
2022-11-24T12:57:18.849Z,2.83
2022-11-24T13:00:06.672Z,2.75
2022-11-24T13:02:39.088Z,2.85
2022-11-24T13:05:26.975Z,2.35
2022-11-24T13:07:57.996Z,2.33
2022-11-24T13:10:46.996Z,2.83
2022-11-24T13:13:16.454Z,2.67
2022-11-24T13:16:34.530Z,2.40
2022-11-24T13:18:48.978Z,3.92
2022-11-24T13:21:27.577Z,2.97
2022-11-24T13:24:01.612Z,2.75
2022-11-24T13:26:31.071Z,2.95
2022-11-24T13:29:12.988Z,3.05
2022-11-24T13:31:48.459Z,2.78
2022-11-24T13:34:33.977Z,3.38
2022-11-24T13:37:26.636Z,3.28
2022-11-24T13:39:50.542Z,3.28
2022-11-24T13:42:42.423Z,3.20
2022-11-24T13:45:05.137Z,3.33
2022-11-24T13:47:31.467Z,3.80
2022-11-24T13:49:57.992Z,3.25
2022-11-24T13:52:44.778Z,3.42
2022-11-24T13:55:14.137Z,3.33
2022-11-24T13:57:40.443Z,3.40
2022-11-24T14:00:27.177Z,4.28
2022-11-24T14:03:04.525Z,3.75
2022-11-24T14:05:35.534Z,3.88
2022-11-24T14:08:02.257Z,3.95
2022-11-24T14:10:34.512Z,3.72
2022-11-24T14:13:19.452Z,3.95
2022-11-24T14:15:58.118Z,3.60
2022-11-24T14:18:24.576Z,3.78
2022-11-24T14:20:50.937Z,3.72
2022-11-24T14:23:17.221Z,3.78
2022-11-24T14:25:50.470Z,4.10
2022-11-24T14:28:34.740Z,3.90
2022-11-24T14:31:18.785Z,3.78
2022-11-24T14:33:45.081Z,4.07
2022-11-24T14:36:15.178Z,4.22
2022-11-24T14:38:41.811Z,4.38
2022-11-24T14:41:16.117Z,3.90
2022-11-24T14:43:42.473Z,5.07
2022-11-24T14:46:10.240Z,4.43
2022-11-24T14:48:37.830Z,5.10
2022-11-24T14:51:05.977Z,4.97
2022-11-24T14:53:32.387Z,4.82
2022-11-24T14:56:21.810Z,5.55
2022-11-24T14:58:48.259Z,4.07
2022-11-24T15:01:17.717Z,4.15
2022-11-24T15:03:44.085Z,5.10
2022-11-24T15:06:18.215Z,4.25
2022-11-24T15:08:46.676Z,5.30
2022-11-24T15:11:13.355Z,4.55
2022-11-24T15:13:39.983Z,4.25
2022-11-24T15:16:16.116Z,4.40
2022-11-24T15:18:43.621Z,3.80
2022-11-24T15:21:17.263Z,3.67
2022-11-24T15:24:04.189Z,4.00
2022-11-24T15:26:35.270Z,3.72
2022-11-24T15:29:04.755Z,4.20
2022-11-24T15:31:31.994Z,3.92
2022-11-24T15:33:58.334Z,3.40
2022-11-24T15:36:24.831Z,4.00
2022-11-24T15:38:52.147Z,4.03
2022-11-24T15:41:25.625Z,4.65
2022-11-24T15:43:58.762Z,3.25
2022-11-24T15:46:29.050Z,3.50
2022-11-24T15:48:55.701Z,3.78
2022-11-24T15:51:23.796Z,3.67
2022-11-24T15:53:54.138Z,3.83
2022-11-24T15:56:25.441Z,3.28
2022-11-24T15:58:53.061Z,3.95
2022-11-24T16:01:20.727Z,3.50
2022-11-24T16:03:48.653Z,3.97
2022-11-24T16:06:22.247Z,3.40
2022-11-24T16:08:50.307Z,3.72
2022-11-24T16:11:16.717Z,3.25
2022-11-24T16:13:48.390Z,3.35
2022-11-24T16:16:18.469Z,4.22
2022-11-24T16:18:45.295Z,3.25
2022-11-24T16:21:11.832Z,3.30
2022-11-24T16:23:38.169Z,3.33
2022-11-24T16:26:05.527Z,2.60
2022-11-24T16:28:31.861Z,3.97
2022-11-24T16:30:58.235Z,2.97
2022-11-24T16:33:24.534Z,2.30
2022-11-24T16:35:50.791Z,2.40
2022-11-24T16:38:18.681Z,2.42
2022-11-24T16:40:44.942Z,2.88
2022-11-24T16:43:11.215Z,2.63
2022-11-24T16:45:40.847Z,2.47
2022-11-24T16:48:10.157Z,3.20
2022-11-24T16:50:37.359Z,1.95
2022-11-24T16:53:04.679Z,2.58
2022-11-24T16:55:30.942Z,2.80
2022-11-24T16:57:57.175Z,2.35
2022-11-24T17:00:23.449Z,2.28
2022-11-24T17:02:49.793Z,2.78
2022-11-24T17:05:16.552Z,2.55
2022-11-24T17:07:42.894Z,2.33
2022-11-24T17:10:09.392Z,2.90
2022-11-24T17:12:36.624Z,2.47
2022-11-24T17:15:31.151Z,2.50
2022-11-24T17:18:16.314Z,2.05
2022-11-24T17:20:36.323Z,2.95
2022-11-24T17:23:03.484Z,2.22
2022-11-24T17:25:31.719Z,2.50
2022-11-24T17:27:58.237Z,2.17
2022-11-24T17:30:24.623Z,3.03
2022-11-24T17:32:56.406Z,2.60
2022-11-24T17:35:23.248Z,2.05
2022-11-24T17:37:49.580Z,2.17
2022-11-24T17:40:34.342Z,2.65
2022-11-24T17:43:01.022Z,2.80
2022-11-24T17:45:28.492Z,2.10
2022-11-24T17:47:55.117Z,2.25
2022-11-24T17:50:25.692Z,2.08
2022-11-24T17:52:52.767Z,2.38
2022-11-24T17:55:19.037Z,1.95
2022-11-24T17:57:45.285Z,2.22
2022-11-24T18:00:12.512Z,2.03
2022-11-24T18:02:38.927Z,2.10
2022-11-24T18:05:05.413Z,2.30
2022-11-24T18:07:31.979Z,2.80
2022-11-24T18:09:58.382Z,2.20
2022-11-24T18:12:24.612Z,1.92
2022-11-24T18:14:50.830Z,1.83
2022-11-24T18:17:17.075Z,2.00
2022-11-24T18:19:43.342Z,1.65
2022-11-24T18:22:09.580Z,2.03
2022-11-24T18:24:36.173Z,1.75
2022-11-24T18:27:02.595Z,2.05
2022-11-24T18:29:28.802Z,2.15
2022-11-24T18:31:55.151Z,2.05
2022-11-24T18:34:24.597Z,2.05
2022-11-24T18:36:52.434Z,1.70
2022-11-24T18:39:20.096Z,2.28
2022-11-24T18:41:46.736Z,2.47
2022-11-24T18:44:13.170Z,2.63
2022-11-24T18:46:39.438Z,2.28
2022-11-24T18:49:06.866Z,2.42
2022-11-24T18:51:33.247Z,1.90
2022-11-24T18:53:59.901Z,2.38
2022-11-24T18:56:26.561Z,2.38
2022-11-24T18:58:53.581Z,2.20
2022-11-24T19:01:21.088Z,2.00
2022-11-24T19:03:49.410Z,2.88
2022-11-24T19:06:24.778Z,2.05
2022-11-24T19:08:53.813Z,2.03
2022-11-24T19:11:24.574Z,2.13
2022-11-24T19:13:51.132Z,1.77
2022-11-24T19:16:18.689Z,2.30
2022-11-24T19:18:50.241Z,1.98
2022-11-24T19:21:19.502Z,2.10
2022-11-24T19:23:45.825Z,1.83
2022-11-24T19:26:12.149Z,1.95
2022-11-24T19:28:38.577Z,2.10
2022-11-24T19:31:09.205Z,1.70
2022-11-24T19:33:35.558Z,1.67
2022-11-24T19:36:02.831Z,2.78
2022-11-24T19:38:32.432Z,2.35
2022-11-24T19:41:06.061Z,2.75
2022-11-24T19:43:32.853Z,2.30
2022-11-24T19:46:02.890Z,2.10
2022-11-24T19:48:40.391Z,1.70
2022-11-24T19:51:07.764Z,2.15
2022-11-24T19:53:34.527Z,2.25
2022-11-24T19:56:08.159Z,2.20
2022-11-24T19:58:34.952Z,2.00
2022-11-24T20:01:11.884Z,2.30
2022-11-24T20:03:38.818Z,2.20
2022-11-24T20:06:06.211Z,2.30
2022-11-24T20:08:32.868Z,2.53
2022-11-24T20:11:12.705Z,2.97
2022-11-24T20:13:40.621Z,2.13
2022-11-24T20:16:27.939Z,2.13
2022-11-24T20:18:55.005Z,2.58
2022-11-24T20:21:22.063Z,2.65
2022-11-24T20:23:55.663Z,2.33
2022-11-24T20:26:25.384Z,2.70
2022-11-24T20:28:53.167Z,2.00
2022-11-24T20:31:21.468Z,3.05
2022-11-24T20:33:47.882Z,2.20
2022-11-24T20:36:15.898Z,2.70
2022-11-24T20:38:42.546Z,2.30
2022-11-24T20:41:12.970Z,2.40
2022-11-24T20:43:39.928Z,2.22
2022-11-24T20:46:07.998Z,2.45
2022-11-24T20:48:35.164Z,2.67
2022-11-24T20:51:05.686Z,2.40
2022-11-24T20:53:31.954Z,2.45
2022-11-24T20:56:06.386Z,2.22
2022-11-24T20:58:33.666Z,2.08
2022-11-24T21:01:07.146Z,2.53
2022-11-24T21:03:36.218Z,1.85
2022-11-24T21:06:06.317Z,1.90
2022-11-24T21:08:33.890Z,2.72
2022-11-24T21:11:00.533Z,1.90
2022-11-24T21:13:27.448Z,2.60
2022-11-24T21:15:54.312Z,2.50
2022-11-24T21:18:21.953Z,2.40
2022-11-24T21:20:48.282Z,2.00
2022-11-24T21:23:15.232Z,2.75
2022-11-24T21:25:41.907Z,2.33
2022-11-24T21:28:09.334Z,2.00
2022-11-24T21:30:36.392Z,2.30
2022-11-24T21:33:03.119Z,2.17
2022-11-24T21:35:29.711Z,2.80
2022-11-24T21:37:56.088Z,2.30
2022-11-24T21:40:22.382Z,2.00
2022-11-24T21:42:48.680Z,2.30
2022-11-24T21:45:14.980Z,1.95
2022-11-24T21:47:42.283Z,2.03
2022-11-24T21:50:08.773Z,1.70
2022-11-24T21:52:35.059Z,1.77
2022-11-24T21:55:01.347Z,1.83
2022-11-24T21:57:28.198Z,2.17
2022-11-24T21:59:54.734Z,2.08
2022-11-24T22:02:21.094Z,2.00
2022-11-24T22:04:47.432Z,2.10
2022-11-24T22:07:13.806Z,2.00
2022-11-24T22:09:40.217Z,2.25
2022-11-24T22:12:06.578Z,2.47
2022-11-24T22:14:36.189Z,1.50
2022-11-24T22:17:06.345Z,1.95
2022-11-24T22:19:32.640Z,2.00
2022-11-24T22:21:58.937Z,1.67
2022-11-24T22:24:27.357Z,2.10
2022-11-24T22:26:54.619Z,1.83
2022-11-24T22:29:20.960Z,1.67
2022-11-24T22:31:47.331Z,1.42
2022-11-24T22:34:16.711Z,2.17
2022-11-24T22:36:43.042Z,1.90
2022-11-24T22:39:10.972Z,1.67
2022-11-24T22:41:37.248Z,1.60
2022-11-24T22:44:03.779Z,2.03
2022-11-24T22:46:30.834Z,1.92
2022-11-24T22:48:58.700Z,1.75
2022-11-24T22:51:28.613Z,2.17
2022-11-24T22:53:56.349Z,1.50
2022-11-24T22:56:23.215Z,1.45
2022-11-24T22:58:49.945Z,2.08
2022-11-24T23:01:20.398Z,1.70
2022-11-24T23:03:47.158Z,1.33
2022-11-24T23:06:14.970Z,1.88
2022-11-24T23:08:41.635Z,1.63
2022-11-24T23:11:12.915Z,1.23
2022-11-24T23:13:39.572Z,2.45
2022-11-24T23:16:07.582Z,1.40
2022-11-24T23:18:34.217Z,1.60
2022-11-24T23:21:23.779Z,2.13
2022-11-24T23:23:50.436Z,1.63
2022-11-24T23:26:23.357Z,1.38
2022-11-24T23:28:49.687Z,1.70
2022-11-24T23:31:22.618Z,1.50
2022-11-24T23:33:48.863Z,1.88
2022-11-24T23:36:18.851Z,1.77
2022-11-24T23:38:45.542Z,1.95
2022-11-24T23:41:15.332Z,1.40
2022-11-24T23:43:42.095Z,1.58
2022-11-24T23:46:09.514Z,1.65
2022-11-24T23:48:36.426Z,1.58
2022-11-24T23:51:03.495Z,1.42
2022-11-24T23:53:30.930Z,1.45
2022-11-24T23:55:57.152Z,1.45
2022-11-24T23:58:23.404Z,1.50
